createdAt,value
2018-05-25T00:00:14.494Z,0
2018-05-25T00:01:14.487Z,0
2018-05-25T00:02:14.472Z,0
2018-05-25T00:03:14.202Z,0
2018-05-25T00:04:14.184Z,0
2018-05-25T00:05:14.443Z,0
2018-05-25T00:06:13.632Z,0
2018-05-25T00:07:14.419Z,0
2018-05-25T00:08:14.407Z,0
2018-05-25T00:09:14.401Z,0
2018-05-25T00:10:14.380Z,0
2018-05-25T00:11:14.635Z,0
2018-05-25T00:12:13.572Z,0
2018-05-25T00:13:14.346Z,0
2018-05-25T00:14:14.625Z,0
2018-05-25T00:15:14.597Z,0
2018-05-25T00:16:14.048Z,0
2018-05-25T00:17:14.303Z,0
2018-05-25T00:18:14.301Z,0
2018-05-25T00:19:14.553Z,0
2018-05-25T00:20:14.270Z,0
2018-05-25T00:21:14.008Z,0
2018-05-25T00:22:13.989Z,0
2018-05-25T00:23:13.703Z,0
2018-05-25T00:24:13.962Z,0
2018-05-25T00:25:13.699Z,0
2018-05-25T00:26:13.941Z,0
2018-05-25T00:27:14.128Z,0
2018-05-25T00:28:14.196Z,0
2018-05-25T00:29:13.641Z,0
2018-05-25T00:30:13.907Z,0
2018-05-25T00:31:13.885Z,0
2018-05-25T00:32:13.622Z,0
2018-05-25T00:33:14.119Z,0
2018-05-25T00:34:14.128Z,0
2018-05-25T00:35:14.110Z,0
2018-05-25T00:36:13.879Z,0
2018-05-25T00:37:13.825Z,0
2018-05-25T00:38:14.078Z,0
2018-05-25T00:39:14.139Z,0
2018-05-25T00:40:13.791Z,0
2018-05-25T00:41:14.309Z,0
2018-05-25T00:42:13.632Z,0
2018-05-25T00:43:14.065Z,0
2018-05-25T00:44:14.187Z,0
2018-05-25T00:45:13.730Z,0
2018-05-25T00:46:14.237Z,0
2018-05-25T00:47:13.440Z,0
2018-05-25T00:48:13.694Z,0
2018-05-25T00:49:13.946Z,0
2018-05-25T00:50:14.192Z,0
2018-05-25T00:51:13.932Z,0
2018-05-25T00:52:13.644Z,0
2018-05-25T00:53:13.640Z,0
2018-05-25T00:54:13.638Z,0
2018-05-25T00:55:13.615Z,0
2018-05-25T00:56:13.865Z,0
2018-05-25T00:57:13.587Z,0
2018-05-25T00:58:13.315Z,0
2018-05-25T00:59:13.839Z,0
2018-05-25T01:00:13.291Z,0
2018-05-25T01:01:14.098Z,0
2018-05-25T01:02:13.788Z,0
2018-05-25T01:03:14.057Z,0
2018-05-25T01:04:13.505Z,0
2018-05-25T01:05:14.030Z,0
2018-05-25T01:06:13.484Z,0
2018-05-25T01:07:13.503Z,0
2018-05-25T01:08:13.738Z,0
2018-05-25T01:09:13.975Z,0
2018-05-25T01:10:13.973Z,0
2018-05-25T01:11:13.430Z,0
2018-05-25T01:12:13.415Z,0
2018-05-25T01:13:13.683Z,0
2018-05-25T01:14:13.660Z,0
2018-05-25T01:15:13.396Z,0
2018-05-25T01:16:13.919Z,0
2018-05-25T01:17:13.359Z,0
2018-05-25T01:18:13.354Z,0
2018-05-25T01:19:13.606Z,0
2018-05-25T01:20:13.596Z,0
2018-05-25T01:21:13.584Z,0
2018-05-25T01:22:13.048Z,0
2018-05-25T01:23:13.558Z,0
2018-05-25T01:24:13.554Z,0
2018-05-25T01:25:13.532Z,0
2018-05-25T01:26:13.793Z,0
2018-05-25T01:27:13.246Z,0
2018-05-25T01:28:13.234Z,0
2018-05-25T01:29:13.815Z,0
2018-05-25T01:30:13.471Z,0
2018-05-25T01:31:13.463Z,0
2018-05-25T01:32:13.190Z,0
2018-05-25T01:33:13.441Z,0
2018-05-25T01:34:13.435Z,0
2018-05-25T01:35:13.895Z,0
2018-05-25T01:36:13.136Z,0
2018-05-25T01:37:13.673Z,0
2018-05-25T01:38:13.389Z,0
2018-05-25T01:39:13.381Z,0
2018-05-25T01:40:13.365Z,0
2018-05-25T01:41:12.820Z,0
2018-05-25T01:42:13.076Z,0
2018-05-25T01:43:13.064Z,0
2018-05-25T01:44:13.324Z,0
2018-05-25T01:45:13.588Z,0
2018-05-25T01:46:13.293Z,0
2018-05-25T01:47:13.543Z,0
2018-05-25T01:48:13.008Z,0
2018-05-25T01:49:13.578Z,0
2018-05-25T01:50:13.255Z,0
2018-05-25T01:51:12.976Z,0
2018-05-25T01:52:12.696Z,0
2018-05-25T01:53:12.955Z,0
2018-05-25T01:54:13.203Z,0
2018-05-25T01:55:13.192Z,0
2018-05-25T01:56:12.913Z,0
2018-05-25T01:57:12.637Z,0
2018-05-25T01:58:12.889Z,0
2018-05-25T01:59:12.884Z,0
2018-05-25T02:00:13.141Z,0
2018-05-25T02:01:13.126Z,0
2018-05-25T02:02:12.845Z,0
2018-05-25T02:03:12.831Z,0
2018-05-25T02:04:12.561Z,0
2018-05-25T02:05:13.075Z,0
2018-05-25T02:06:12.806Z,0
2018-05-25T02:07:13.055Z,0
2018-05-25T02:08:13.044Z,0
2018-05-25T02:09:13.299Z,0
2018-05-25T02:10:12.767Z,0
2018-05-25T02:11:12.782Z,0
2018-05-25T02:12:12.734Z,0
2018-05-25T02:13:12.997Z,0
2018-05-25T02:14:12.986Z,0
2018-05-25T02:15:12.707Z,0
2018-05-25T02:16:12.163Z,0
2018-05-25T02:17:13.209Z,0
2018-05-25T02:18:13.186Z,0
2018-05-25T02:19:12.384Z,0
2018-05-25T02:20:12.642Z,0
2018-05-25T02:21:12.948Z,0
2018-05-25T02:22:13.159Z,0
2018-05-25T02:23:12.869Z,0
2018-05-25T02:24:12.862Z,0
2018-05-25T02:25:12.580Z,0
2018-05-25T02:26:12.839Z,0
2018-05-25T02:27:12.962Z,0
2018-05-25T02:28:13.075Z,0
2018-05-25T02:29:12.803Z,0
2018-05-25T02:30:12.256Z,0
2018-05-25T02:31:12.845Z,0
2018-05-25T02:32:12.520Z,0
2018-05-25T02:33:12.501Z,0
2018-05-25T02:34:12.481Z,0
2018-05-25T02:35:12.741Z,0
2018-05-25T02:36:12.992Z,0
2018-05-25T02:37:12.453Z,0
2018-05-25T02:38:12.710Z,0
2018-05-25T02:39:12.417Z,0
2018-05-25T02:40:12.412Z,0
2018-05-25T02:41:12.419Z,0
2018-05-25T02:42:12.644Z,0
2018-05-25T02:43:12.642Z,0
2018-05-25T02:44:12.643Z,0
2018-05-25T02:45:13.012Z,0
2018-05-25T02:46:12.609Z,0
2018-05-25T02:47:12.602Z,0
2018-05-25T02:48:12.588Z,0
2018-05-25T02:49:12.571Z,0
2018-05-25T02:50:12.875Z,0
2018-05-25T02:51:12.559Z,0
2018-05-25T02:52:12.547Z,0
2018-05-25T02:53:12.261Z,0
2018-05-25T02:54:12.523Z,0
2018-05-25T02:55:12.240Z,0
2018-05-25T02:56:12.224Z,0
2018-05-25T02:57:12.846Z,0
2018-05-25T02:58:12.467Z,0
2018-05-25T02:59:12.195Z,0
2018-05-25T03:00:12.442Z,0
2018-05-25T03:01:11.632Z,0
2018-05-25T03:02:12.699Z,0
2018-05-25T03:03:12.423Z,0
2018-05-25T03:04:11.608Z,0
2018-05-25T03:05:12.669Z,0
2018-05-25T03:06:12.380Z,0
2018-05-25T03:07:12.107Z,0
2018-05-25T03:08:12.358Z,0
2018-05-25T03:09:12.098Z,0
2018-05-25T03:10:12.059Z,0
2018-05-25T03:11:11.793Z,0
2018-05-25T03:12:12.073Z,0
2018-05-25T03:13:12.051Z,0
2018-05-25T03:14:12.288Z,0
2018-05-25T03:15:12.298Z,0
2018-05-25T03:16:11.724Z,0
2018-05-25T03:17:12.050Z,0
2018-05-25T03:18:12.529Z,0
2018-05-25T03:19:11.964Z,0
2018-05-25T03:20:11.942Z,0
2018-05-25T03:21:12.222Z,0
2018-05-25T03:22:11.654Z,0
2018-05-25T03:23:11.659Z,0
2018-05-25T03:24:11.900Z,0
2018-05-25T03:25:11.937Z,0
2018-05-25T03:26:12.336Z,0
2018-05-25T03:27:12.159Z,0
2018-05-25T03:28:11.847Z,0
2018-05-25T03:29:12.378Z,0
2018-05-25T03:30:12.090Z,5
2018-05-25T03:31:12.079Z,5
2018-05-25T03:32:12.331Z,5
2018-05-25T03:33:12.335Z,5
2018-05-25T03:34:11.795Z,5
2018-05-25T03:35:11.771Z,5
2018-05-25T03:36:12.036Z,5
2018-05-25T03:37:12.015Z,5
2018-05-25T03:38:11.999Z,5
2018-05-25T03:39:11.997Z,5
2018-05-25T03:40:11.721Z,5
2018-05-25T03:41:12.244Z,5
2018-05-25T03:42:11.692Z,5
2018-05-25T03:43:11.679Z,10
2018-05-25T03:44:11.928Z,10
2018-05-25T03:45:11.957Z,10
2018-05-25T03:46:11.655Z,10
2018-05-25T03:47:11.917Z,10
2018-05-25T03:48:11.352Z,10
2018-05-25T03:49:12.186Z,10
2018-05-25T03:50:12.116Z,10
2018-05-25T03:51:11.838Z,10
2018-05-25T03:52:11.575Z,10
2018-05-25T03:53:11.556Z,10
2018-05-25T03:54:12.074Z,10
2018-05-25T03:55:11.809Z,10
2018-05-25T03:56:11.841Z,10
2018-05-25T03:57:11.792Z,10
2018-05-25T03:58:11.226Z,10
2018-05-25T03:59:11.492Z,15
2018-05-25T04:00:11.473Z,15
2018-05-25T04:01:11.202Z,15
2018-05-25T04:02:11.183Z,15
2018-05-25T04:03:11.704Z,15
2018-05-25T04:04:11.152Z,15
2018-05-25T04:05:11.682Z,15
2018-05-25T04:06:11.674Z,15
2018-05-25T04:07:11.399Z,15
2018-05-25T04:08:11.110Z,15
2018-05-25T04:09:11.631Z,15
2018-05-25T04:10:11.099Z,15
2018-05-25T04:11:11.080Z,15
2018-05-25T04:12:11.335Z,15
2018-05-25T04:13:11.315Z,15
2018-05-25T04:14:11.315Z,15
2018-05-25T04:15:11.033Z,15
2018-05-25T04:16:11.543Z,20
2018-05-25T04:17:11.269Z,20
2018-05-25T04:18:11.532Z,20
2018-05-25T04:19:11.257Z,20
2018-05-25T04:20:11.497Z,20
2018-05-25T04:21:11.224Z,20
2018-05-25T04:22:10.960Z,20
2018-05-25T04:23:11.725Z,20
2018-05-25T04:24:10.923Z,20
2018-05-25T04:25:11.180Z,20
2018-05-25T04:26:10.904Z,20
2018-05-25T04:27:11.565Z,20
2018-05-25T04:28:11.678Z,20
2018-05-25T04:29:11.397Z,20
2018-05-25T04:30:11.381Z,20
2018-05-25T04:31:10.841Z,20
2018-05-25T04:32:11.136Z,20
2018-05-25T04:33:11.347Z,20
2018-05-25T04:34:11.602Z,25
2018-05-25T04:35:11.324Z,25
2018-05-25T04:36:11.061Z,25
2018-05-25T04:37:11.040Z,25
2018-05-25T04:38:10.756Z,25
2018-05-25T04:39:11.543Z,25
2018-05-25T04:40:11.263Z,25
2018-05-25T04:41:10.992Z,25
2018-05-25T04:42:11.257Z,25
2018-05-25T04:43:10.996Z,25
2018-05-25T04:44:10.958Z,30
2018-05-25T04:45:10.938Z,30
2018-05-25T04:46:10.937Z,30
2018-05-25T04:47:10.920Z,30
2018-05-25T04:48:11.170Z,35
2018-05-25T04:49:10.900Z,35
2018-05-25T04:50:10.886Z,35
2018-05-25T04:51:10.616Z,35
2018-05-25T04:52:11.145Z,35
2018-05-25T04:53:11.406Z,40
2018-05-25T04:54:10.312Z,40
2018-05-25T04:55:11.375Z,40
2018-05-25T04:56:11.089Z,40
2018-05-25T04:57:10.814Z,40
2018-05-25T04:58:11.054Z,45
2018-05-25T04:59:10.778Z,45
2018-05-25T05:00:10.784Z,45
2018-05-25T05:01:10.507Z,50
2018-05-25T05:02:11.020Z,50
2018-05-25T05:03:11.008Z,50
2018-05-25T05:04:10.725Z,50
2018-05-25T05:05:11.361Z,55
2018-05-25T05:06:10.975Z,55
2018-05-25T05:07:10.735Z,55
2018-05-25T05:08:11.210Z,50
2018-05-25T05:09:11.212Z,50
2018-05-25T05:10:10.655Z,50
2018-05-25T05:11:10.916Z,50
2018-05-25T05:12:10.894Z,45
2018-05-25T05:13:10.358Z,45
2018-05-25T05:14:10.616Z,45
2018-05-25T05:15:10.909Z,45
2018-05-25T05:16:10.322Z,40
2018-05-25T05:17:10.786Z,40
2018-05-25T05:18:10.575Z,40
2018-05-25T05:19:10.290Z,40
2018-05-25T05:20:10.561Z,40
2018-05-25T05:21:10.793Z,40
2018-05-25T05:22:10.795Z,40
2018-05-25T05:23:10.663Z,40
2018-05-25T05:24:10.504Z,40
2018-05-25T05:25:10.490Z,40
2018-05-25T05:26:10.465Z,45
2018-05-25T05:27:10.740Z,45
2018-05-25T05:28:10.726Z,45
2018-05-25T05:29:10.435Z,45
2018-05-25T05:30:10.430Z,45
2018-05-25T05:31:10.682Z,45
2018-05-25T05:32:10.414Z,45
2018-05-25T05:33:10.668Z,50
2018-05-25T05:34:10.398Z,50
2018-05-25T05:35:10.655Z,50
2018-05-25T05:36:10.367Z,50
2018-05-25T05:37:10.616Z,55
2018-05-25T05:38:10.352Z,55
2018-05-25T05:39:10.597Z,50
2018-05-25T05:40:10.599Z,55
2018-05-25T05:41:10.312Z,55
2018-05-25T05:42:10.038Z,60
2018-05-25T05:43:10.286Z,60
2018-05-25T05:44:10.965Z,60
2018-05-25T05:45:10.573Z,65
2018-05-25T05:46:10.528Z,65
2018-05-25T05:47:10.805Z,65
2018-05-25T05:48:09.964Z,70
2018-05-25T05:49:10.493Z,70
2018-05-25T05:50:10.475Z,75
2018-05-25T05:51:10.271Z,80
2018-05-25T05:52:10.462Z,85
2018-05-25T05:53:10.187Z,90
2018-05-25T05:54:10.699Z,90
2018-05-25T05:55:09.900Z,95
2018-05-25T05:56:10.430Z,100
2018-05-25T05:57:10.680Z,105
2018-05-25T05:58:10.128Z,105
2018-05-25T05:59:10.126Z,105
2018-05-25T06:00:10.646Z,110
2018-05-25T06:01:10.374Z,110
2018-05-25T06:02:10.351Z,115
2018-05-25T06:03:10.340Z,115
2018-05-25T06:04:10.065Z,115
2018-05-25T06:05:10.320Z,120
2018-05-25T06:06:09.779Z,125
2018-05-25T06:07:10.042Z,135
2018-05-25T06:08:10.282Z,130
2018-05-25T06:09:10.007Z,135
2018-05-25T06:10:10.012Z,130
2018-05-25T06:11:09.778Z,130
2018-05-25T06:12:09.980Z,125
2018-05-25T06:13:10.232Z,120
2018-05-25T06:14:10.485Z,120
2018-05-25T06:15:09.695Z,120
2018-05-25T06:16:09.967Z,120
2018-05-25T06:17:10.516Z,110
2018-05-25T06:18:09.924Z,110
2018-05-25T06:19:10.204Z,105
2018-05-25T06:20:10.620Z,100
2018-05-25T06:21:10.432Z,105
2018-05-25T06:22:09.880Z,105
2018-05-25T06:23:09.870Z,105
2018-05-25T06:24:09.851Z,105
2018-05-25T06:25:10.121Z,100
2018-05-25T06:26:09.839Z,100
2018-05-25T06:27:10.358Z,100
2018-05-25T06:28:10.280Z,100
2018-05-25T06:29:09.813Z,105
2018-05-25T06:30:09.534Z,105
2018-05-25T06:31:10.326Z,105
2018-05-25T06:32:10.049Z,105
2018-05-25T06:33:09.520Z,110
2018-05-25T06:34:09.751Z,115
2018-05-25T06:35:09.768Z,120
2018-05-25T06:36:09.993Z,125
2018-05-25T06:37:10.256Z,130
2018-05-25T06:38:09.986Z,135
2018-05-25T06:39:10.250Z,135
2018-05-25T06:40:09.959Z,135
2018-05-25T06:41:09.967Z,130
2018-05-25T06:42:09.944Z,130
2018-05-25T06:43:09.668Z,125
2018-05-25T06:44:09.947Z,115
2018-05-25T06:45:09.665Z,115
2018-05-25T06:46:10.164Z,110
2018-05-25T06:47:09.365Z,110
2018-05-25T06:48:09.359Z,115
2018-05-25T06:49:09.916Z,115
2018-05-25T06:50:09.930Z,120
2018-05-25T06:51:10.065Z,120
2018-05-25T06:52:09.846Z,125
2018-05-25T06:53:09.582Z,120
2018-05-25T06:54:09.568Z,120
2018-05-25T06:55:09.562Z,120
2018-05-25T06:56:09.577Z,125
2018-05-25T06:57:09.391Z,125
2018-05-25T06:58:09.628Z,130
2018-05-25T06:59:09.521Z,130
2018-05-25T07:00:09.781Z,140
2018-05-25T07:01:10.050Z,140
2018-05-25T07:02:09.759Z,140
2018-05-25T07:03:10.014Z,140
2018-05-25T07:04:09.626Z,140
2018-05-25T07:05:09.991Z,140
2018-05-25T07:06:09.187Z,140
2018-05-25T07:07:09.188Z,140
2018-05-25T07:08:09.173Z,140
2018-05-25T07:09:09.699Z,145
2018-05-25T07:10:09.409Z,145
2018-05-25T07:11:09.872Z,145
2018-05-25T07:12:09.931Z,145
2018-05-25T07:13:09.392Z,140
2018-05-25T07:14:09.648Z,140
2018-05-25T07:15:09.900Z,140
2018-05-25T07:16:09.892Z,140
2018-05-25T07:17:10.055Z,140
2018-05-25T07:18:09.604Z,140
2018-05-25T07:19:09.341Z,145
2018-05-25T07:20:09.328Z,145
2018-05-25T07:21:09.624Z,145
2018-05-25T07:22:09.296Z,150
2018-05-25T07:23:09.029Z,150
2018-05-25T07:24:09.563Z,150
2018-05-25T07:25:09.545Z,330
2018-05-25T07:26:09.012Z,795
2018-05-25T07:27:09.531Z,950
2018-05-25T07:28:09.242Z,945
2018-05-25T07:29:08.980Z,930
2018-05-25T07:30:09.486Z,940
2018-05-25T07:31:09.485Z,965
2018-05-25T07:32:09.486Z,950
2018-05-25T07:33:09.473Z,950
2018-05-25T07:34:09.470Z,970
2018-05-25T07:35:09.464Z,1010
2018-05-25T07:36:09.715Z,1045
2018-05-25T07:37:09.451Z,1070
2018-05-25T07:38:08.920Z,1060
2018-05-25T07:39:09.721Z,1060
2018-05-25T07:40:09.432Z,1055
2018-05-25T07:41:09.692Z,1035
2018-05-25T07:42:09.413Z,1025
2018-05-25T07:43:08.620Z,1050
2018-05-25T07:44:09.155Z,1090
2018-05-25T07:45:09.165Z,1130
2018-05-25T07:46:08.885Z,1135
2018-05-25T07:47:09.412Z,1125
2018-05-25T07:48:09.405Z,1125
2018-05-25T07:49:09.393Z,1105
2018-05-25T07:50:09.397Z,1090
2018-05-25T07:51:09.392Z,1085
2018-05-25T07:52:09.380Z,1070
2018-05-25T07:53:09.117Z,1085
2018-05-25T07:54:09.651Z,1150
2018-05-25T07:55:09.480Z,1180
2018-05-25T07:56:09.132Z,1190
2018-05-25T07:57:09.377Z,1160
2018-05-25T07:58:08.839Z,855
2018-05-25T07:59:09.408Z,960
2018-05-25T08:00:09.369Z,1115
2018-05-25T08:01:09.101Z,1140
2018-05-25T08:02:09.361Z,1160
2018-05-25T08:03:09.097Z,1205
2018-05-25T08:04:09.637Z,1050
2018-05-25T08:05:09.104Z,1075
2018-05-25T08:06:09.099Z,990
2018-05-25T08:07:08.834Z,1005
2018-05-25T08:08:09.109Z,990
2018-05-25T08:09:09.093Z,1035
2018-05-25T08:10:09.090Z,1080
2018-05-25T08:11:08.835Z,1135
2018-05-25T08:12:09.459Z,1190
2018-05-25T08:13:09.622Z,1185
2018-05-25T08:14:09.130Z,1160
2018-05-25T08:15:08.832Z,1050
2018-05-25T08:16:09.626Z,495
2018-05-25T08:17:09.096Z,630
2018-05-25T08:18:09.365Z,1070
2018-05-25T08:19:09.353Z,1140
2018-05-25T08:20:09.368Z,1175
2018-05-25T08:21:09.108Z,1175
2018-05-25T08:22:09.451Z,1105
2018-05-25T08:23:09.625Z,1030
2018-05-25T08:24:08.839Z,1265
2018-05-25T08:25:09.359Z,1245
2018-05-25T08:26:09.094Z,1235
2018-05-25T08:27:09.643Z,1245
2018-05-25T08:28:09.572Z,1250
2018-05-25T08:29:09.101Z,1210
2018-05-25T08:30:09.644Z,1195
2018-05-25T08:31:09.648Z,1225
2018-05-25T08:32:09.117Z,1260
2018-05-25T08:33:09.369Z,315
2018-05-25T08:34:09.631Z,1175
2018-05-25T08:35:09.652Z,650
2018-05-25T08:36:09.109Z,505
2018-05-25T08:37:09.383Z,290
2018-05-25T08:38:09.377Z,275
2018-05-25T08:39:09.116Z,270
2018-05-25T08:40:09.386Z,265
2018-05-25T08:41:09.116Z,265
2018-05-25T08:42:09.112Z,260
2018-05-25T08:43:09.691Z,245
2018-05-25T08:44:09.656Z,245
2018-05-25T08:45:09.582Z,255
2018-05-25T08:46:09.641Z,235
2018-05-25T08:47:09.105Z,215
2018-05-25T08:48:09.107Z,250
2018-05-25T08:49:09.103Z,310
2018-05-25T08:50:08.836Z,295
2018-05-25T08:51:09.365Z,310
2018-05-25T08:52:09.369Z,315
2018-05-25T08:53:09.100Z,345
2018-05-25T08:54:09.350Z,380
2018-05-25T08:55:09.216Z,380
2018-05-25T08:56:09.353Z,390
2018-05-25T08:57:08.820Z,380
2018-05-25T08:58:09.608Z,395
2018-05-25T08:59:08.806Z,415
2018-05-25T09:00:09.075Z,410
2018-05-25T09:01:09.606Z,415
2018-05-25T09:02:09.080Z,400
2018-05-25T09:03:08.797Z,385
2018-05-25T09:04:09.052Z,325
2018-05-25T09:05:09.586Z,325
2018-05-25T09:06:09.044Z,330
2018-05-25T09:07:09.057Z,365
2018-05-25T09:08:09.298Z,355
2018-05-25T09:09:09.037Z,330
2018-05-25T09:10:09.329Z,360
2018-05-25T09:11:09.574Z,430
2018-05-25T09:12:09.033Z,380
2018-05-25T09:13:09.026Z,340
2018-05-25T09:14:09.553Z,340
2018-05-25T09:15:09.025Z,350
2018-05-25T09:16:08.748Z,355
2018-05-25T09:17:09.279Z,355
2018-05-25T09:18:09.266Z,370
2018-05-25T09:19:08.732Z,380
2018-05-25T09:20:09.288Z,385
2018-05-25T09:21:08.731Z,425
2018-05-25T09:22:08.997Z,445
2018-05-25T09:23:08.989Z,475
2018-05-25T09:24:08.995Z,470
2018-05-25T09:25:09.053Z,495
2018-05-25T09:26:09.508Z,510
2018-05-25T09:27:09.236Z,520
2018-05-25T09:28:09.497Z,525
2018-05-25T09:29:08.961Z,530
2018-05-25T09:30:09.496Z,520
2018-05-25T09:31:08.951Z,540
2018-05-25T09:32:08.944Z,545
2018-05-25T09:33:08.674Z,545
2018-05-25T09:34:09.194Z,510
2018-05-25T09:35:09.458Z,475
2018-05-25T09:36:09.474Z,470
2018-05-25T09:37:08.921Z,550
2018-05-25T09:38:08.657Z,535
2018-05-25T09:39:08.660Z,540
2018-05-25T09:40:08.916Z,520
2018-05-25T09:41:09.444Z,535
2018-05-25T09:42:08.644Z,780
2018-05-25T09:43:08.377Z,590
2018-05-25T09:44:08.632Z,430
2018-05-25T09:45:09.155Z,410
2018-05-25T09:46:08.887Z,500
2018-05-25T09:47:08.887Z,480
2018-05-25T09:48:08.618Z,500
2018-05-25T09:49:09.153Z,525
2018-05-25T09:50:09.412Z,565
2018-05-25T09:51:09.405Z,570
2018-05-25T09:52:09.139Z,530
2018-05-25T09:53:09.131Z,510
2018-05-25T09:54:08.868Z,530
2018-05-25T09:55:08.864Z,565
2018-05-25T09:56:09.347Z,580
2018-05-25T09:57:08.590Z,565
2018-05-25T09:58:08.594Z,555
2018-05-25T09:59:09.382Z,540
2018-05-25T10:00:08.856Z,535
2018-05-25T10:01:09.386Z,540
2018-05-25T10:02:09.125Z,575
2018-05-25T10:03:08.642Z,590
2018-05-25T10:04:09.113Z,610
2018-05-25T10:05:08.965Z,590
2018-05-25T10:06:09.082Z,565
2018-05-25T10:07:09.092Z,530
2018-05-25T10:08:09.108Z,505
2018-05-25T10:09:09.091Z,505
2018-05-25T10:10:08.336Z,510
2018-05-25T10:11:09.287Z,510
2018-05-25T10:12:09.073Z,520
2018-05-25T10:13:09.077Z,495
2018-05-25T10:14:08.810Z,470
2018-05-25T10:15:09.334Z,490
2018-05-25T10:16:08.808Z,485
2018-05-25T10:17:08.808Z,550
2018-05-25T10:18:09.140Z,575
2018-05-25T10:19:09.328Z,630
2018-05-25T10:20:09.067Z,625
2018-05-25T10:21:09.050Z,595
2018-05-25T10:22:08.780Z,575
2018-05-25T10:23:08.793Z,545
2018-05-25T10:24:08.793Z,575
2018-05-25T10:25:08.774Z,590
2018-05-25T10:26:09.044Z,630
2018-05-25T10:27:09.036Z,545
2018-05-25T10:28:09.224Z,555
2018-05-25T10:29:09.037Z,555
2018-05-25T10:30:09.284Z,595
2018-05-25T10:31:09.025Z,555
2018-05-25T10:32:08.759Z,945
2018-05-25T10:33:08.750Z,585
2018-05-25T10:34:08.485Z,1040
2018-05-25T10:35:09.185Z,820
2018-05-25T10:36:08.492Z,710
2018-05-25T10:37:09.015Z,545
2018-05-25T10:38:08.475Z,460
2018-05-25T10:39:08.474Z,770
2018-05-25T10:40:08.728Z,1335
2018-05-25T10:41:09.259Z,1995
2018-05-25T10:42:09.013Z,2005
2018-05-25T10:43:08.459Z,1985
2018-05-25T10:44:08.736Z,1880
2018-05-25T10:45:08.462Z,535
2018-05-25T10:46:08.995Z,550
2018-05-25T10:47:08.724Z,650
2018-05-25T10:48:09.175Z,1090
2018-05-25T10:49:08.989Z,690
2018-05-25T10:50:09.250Z,940
2018-05-25T10:51:08.999Z,670
2018-05-25T10:52:08.717Z,1545
2018-05-25T10:53:08.452Z,890
2018-05-25T10:54:08.744Z,1435
2018-05-25T10:55:08.996Z,610
2018-05-25T10:56:08.864Z,525
2018-05-25T10:57:08.721Z,540
2018-05-25T10:58:08.723Z,795
2018-05-25T10:59:08.987Z,1465
2018-05-25T11:00:08.452Z,545
2018-05-25T11:01:08.724Z,665
2018-05-25T11:02:08.719Z,320
2018-05-25T11:03:08.983Z,225
2018-05-25T11:04:09.000Z,180
2018-05-25T11:05:09.273Z,160
2018-05-25T11:06:08.994Z,155
2018-05-25T11:07:09.314Z,155
2018-05-25T11:08:08.720Z,160
2018-05-25T11:09:08.460Z,170
2018-05-25T11:10:08.560Z,190
2018-05-25T11:11:08.714Z,220
2018-05-25T11:12:08.721Z,285
2018-05-25T11:13:08.980Z,230
2018-05-25T11:14:08.719Z,240
2018-05-25T11:15:09.253Z,255
2018-05-25T11:16:08.719Z,250
2018-05-25T11:17:08.709Z,235
2018-05-25T11:18:08.988Z,225
2018-05-25T11:19:09.240Z,220
2018-05-25T11:20:09.247Z,215
2018-05-25T11:21:08.429Z,230
2018-05-25T11:22:08.717Z,230
2018-05-25T11:23:08.961Z,235
2018-05-25T11:24:08.726Z,225
2018-05-25T11:25:08.973Z,205
2018-05-25T11:26:08.708Z,185
2018-05-25T11:27:08.774Z,165
2018-05-25T11:28:09.201Z,155
2018-05-25T11:29:08.930Z,145
2018-05-25T11:30:08.940Z,145
2018-05-25T11:31:08.404Z,145
2018-05-25T11:32:09.189Z,155
2018-05-25T11:33:09.011Z,165
2018-05-25T11:34:08.914Z,180
2018-05-25T11:35:08.926Z,195
2018-05-25T11:36:08.932Z,200
2018-05-25T11:37:08.954Z,220
2018-05-25T11:38:08.654Z,240
2018-05-25T11:39:08.906Z,245
2018-05-25T11:40:08.632Z,250
2018-05-25T11:41:08.646Z,255
2018-05-25T11:42:08.656Z,255
2018-05-25T11:43:08.286Z,245
2018-05-25T11:44:08.894Z,240
2018-05-25T11:45:08.612Z,240
2018-05-25T11:46:08.609Z,240
2018-05-25T11:47:08.862Z,235
2018-05-25T11:48:09.116Z,230
2018-05-25T11:49:08.864Z,235
2018-05-25T11:50:08.610Z,230
2018-05-25T11:51:08.586Z,230
2018-05-25T11:52:08.325Z,235
2018-05-25T11:53:09.028Z,235
2018-05-25T11:54:08.574Z,240
2018-05-25T11:55:08.302Z,245
2018-05-25T11:56:08.578Z,245
2018-05-25T11:57:08.557Z,235
2018-05-25T11:58:09.078Z,245
2018-05-25T11:59:08.277Z,245
2018-05-25T12:00:08.276Z,245
2018-05-25T12:01:09.061Z,245
2018-05-25T12:02:08.266Z,250
2018-05-25T12:03:08.532Z,250
2018-05-25T12:04:09.073Z,255
2018-05-25T12:05:09.063Z,250
2018-05-25T12:06:08.247Z,245
2018-05-25T12:07:09.042Z,240
2018-05-25T12:08:08.510Z,235
2018-05-25T12:09:09.032Z,235
2018-05-25T12:10:08.493Z,240
2018-05-25T12:11:08.225Z,245
2018-05-25T12:12:08.493Z,250
2018-05-25T12:13:08.480Z,250
2018-05-25T12:14:08.481Z,255
2018-05-25T12:15:08.476Z,250
2018-05-25T12:16:08.478Z,250
2018-05-25T12:17:08.467Z,245
2018-05-25T12:18:08.460Z,240
2018-05-25T12:19:08.515Z,235
2018-05-25T12:20:08.194Z,230
2018-05-25T12:21:09.001Z,230
2018-05-25T12:22:08.983Z,225
2018-05-25T12:23:08.438Z,225
2018-05-25T12:24:08.703Z,225
2018-05-25T12:25:08.432Z,225
2018-05-25T12:26:08.165Z,225
2018-05-25T12:27:08.434Z,230
2018-05-25T12:28:08.227Z,235
2018-05-25T12:29:08.406Z,240
2018-05-25T12:30:08.678Z,250
2018-05-25T12:31:08.413Z,255
2018-05-25T12:32:08.927Z,270
2018-05-25T12:33:08.667Z,285
2018-05-25T12:34:08.958Z,280
2018-05-25T12:35:08.927Z,285
2018-05-25T12:36:08.658Z,290
2018-05-25T12:37:08.378Z,295
2018-05-25T12:38:08.370Z,300
2018-05-25T12:39:08.632Z,300
2018-05-25T12:40:08.399Z,305
2018-05-25T12:41:08.101Z,305
2018-05-25T12:42:08.352Z,310
2018-05-25T12:43:08.078Z,305
2018-05-25T12:44:08.610Z,310
2018-05-25T12:45:08.879Z,320
2018-05-25T12:46:08.346Z,335
2018-05-25T12:47:08.343Z,345
2018-05-25T12:48:08.577Z,360
2018-05-25T12:49:08.321Z,380
2018-05-25T12:50:08.865Z,405
2018-05-25T12:51:08.316Z,445
2018-05-25T12:52:08.847Z,465
2018-05-25T12:53:08.304Z,420
2018-05-25T12:54:08.304Z,425
2018-05-25T12:55:08.298Z,400
2018-05-25T12:56:08.836Z,400
2018-05-25T12:57:08.820Z,390
2018-05-25T12:58:08.274Z,380
2018-05-25T12:59:08.536Z,380
2018-05-25T13:00:08.538Z,375
2018-05-25T13:01:08.027Z,380
2018-05-25T13:02:08.542Z,390
2018-05-25T13:03:08.798Z,455
2018-05-25T13:04:08.787Z,455
2018-05-25T13:05:08.260Z,405
2018-05-25T13:06:07.988Z,380
2018-05-25T13:07:08.776Z,360
2018-05-25T13:08:08.505Z,345
2018-05-25T13:09:07.976Z,340
2018-05-25T13:10:07.976Z,330
2018-05-25T13:11:08.231Z,345
2018-05-25T13:12:08.751Z,350
2018-05-25T13:13:07.967Z,375
2018-05-25T13:14:08.224Z,390
2018-05-25T13:15:08.231Z,400
2018-05-25T13:16:08.809Z,415
2018-05-25T13:17:08.210Z,425
2018-05-25T13:18:08.467Z,445
2018-05-25T13:19:07.930Z,495
2018-05-25T13:20:08.466Z,455
2018-05-25T13:21:08.199Z,435
2018-05-25T13:22:08.470Z,415
2018-05-25T13:23:07.923Z,400
2018-05-25T13:24:08.387Z,400
2018-05-25T13:25:08.186Z,410
2018-05-25T13:26:08.710Z,420
2018-05-25T13:27:08.180Z,430
2018-05-25T13:28:08.743Z,440
2018-05-25T13:29:08.443Z,490
2018-05-25T13:30:08.444Z,425
2018-05-25T13:31:07.965Z,385
2018-05-25T13:32:08.433Z,370
2018-05-25T13:33:08.165Z,370
2018-05-25T13:34:08.692Z,380
2018-05-25T13:35:08.186Z,370
2018-05-25T13:36:08.437Z,350
2018-05-25T13:37:08.413Z,340
2018-05-25T13:38:08.676Z,325
2018-05-25T13:39:08.136Z,315
2018-05-25T13:40:08.401Z,300
2018-05-25T13:41:08.674Z,295
2018-05-25T13:42:08.391Z,300
2018-05-25T13:43:08.391Z,300
2018-05-25T13:44:08.659Z,305
2018-05-25T13:45:08.381Z,315
2018-05-25T13:46:08.381Z,325
2018-05-25T13:47:08.381Z,325
2018-05-25T13:48:08.363Z,320
2018-05-25T13:49:07.835Z,325
2018-05-25T13:50:08.631Z,335
2018-05-25T13:51:08.089Z,350
2018-05-25T13:52:08.374Z,370
2018-05-25T13:53:08.094Z,390
2018-05-25T13:54:08.094Z,410
2018-05-25T13:55:08.082Z,430
2018-05-25T13:56:07.807Z,465
2018-05-25T13:57:08.337Z,480
2018-05-25T13:58:08.066Z,505
2018-05-25T13:59:07.793Z,565
2018-05-25T14:00:07.795Z,820
2018-05-25T14:01:08.326Z,1470
2018-05-25T14:02:07.794Z,1500
2018-05-25T14:03:08.051Z,1040